map of ZIH home
ZIH - Airport
Location
City:  Ixtapa/Zihuatanejo, Guerrero, México
Name:Ixtapa-Zihuatanejo International Airport
ICAO:MMZH
IATA:ZIH

Details
Type:Airport (Aerodrome, Airfield)
Use:Public/Civil, International (customs port of entry)
Latitude:17°36'06"N (17.601569)
Longitude:101°27'38"W (-101.460535)
Datum:WGS 1984
Elevation:26 ft (8 m)
Variation:5.51°E (WMM2015 magnetic declination)
-0.11° annual change
Runways:1
Longest:8202 × 197 ft (2500 × 60 m), paved

Time
Time Zone:UTC-6 (DST-5)
Local Time:

Weather
METAR:MMZH 190147Z 00000KT 6SM SCT060 BKN250 28/23 A2990 RMK 8/032 HZY

Related Locations
Nearby:
Farthest:NKW: 11616 mi / 18693 km
Diego Garcia, Chagos Archipelago, IO

Find:

   beyond  
but within

Other Information
Maps:
NOTAMs:
Links:
Sources:

  
  • flag of México
  • flag of Guerrero
  

Sectional Chart

Flight Planning
at skyvector.com

Satellite Image

Google Maps Satellite view

 

Copyright © 2004-2018 Karl L. Swartz. All rights reserved.
The Great Circle Mapper name and logo are trademarks of the Great Circle Mapper.
All other trademarks mentioned herein belong to their respective owners.
Please see credits for attibutions and further copyright information.

  Follow gcmap on Facebook Follow gcmap on Twitter Follow gcmap on Google+ GCmap on LinkedIn

hCard Microformat

Geo Microformat